Melbourne Village, Florida
Current Conditions -  °F | °C
As of 4:53 AM on Saturday 22 Nov 2014 (Local Time) from KMLB Reporting Station
Overcast Overcast  
Wind Chill: 74°   Ceiling: 5000
Heat Index: 74°   Visibility: 10mi
Dew Point: 62°   Wind: 16mph
Humidity: 66%   Direction: 80°E
Pressure: 30.21"   Gusts: NA
Location:  28.0719°N, 80.7009°W
Report Text: KMLB 220953Z AUTO 08014KT 10SM FEW037 BKN050 OVC075 23/17 A3021 RMK AO2 SLP228 T02330167
Loading
Personal Weather Stations






























Interactive Weather Map New forecast layout! Learn more

10-Day Weather Forecast

Advertisements
Track Severe Weather on mobile